sensor_id;sensor_type;location;lat;lon;timestamp;pressure;altitude;pressure_sealevel;temperature;humidity
50430;BME280;36359;41.556;-8.418;2022-12-18T00:00:46;100488.13;;;14.88;93.35
50430;BME280;36359;41.556;-8.418;2022-12-18T00:03:14;100492.41;;;14.82;83.60
50430;BME280;36359;41.556;-8.418;2022-12-18T00:05:48;100501.84;;;14.80;86.64
50430;BME280;36359;41.556;-8.418;2022-12-18T00:08:14;100502.00;;;14.78;90.68
50430;BME280;36359;41.556;-8.418;2022-12-18T00:10:40;100515.13;;;14.34;83.69
50430;BME280;36359;41.556;-8.418;2022-12-18T00:13:05;100510.00;;;14.06;84.21
50430;BME280;36359;41.556;-8.418;2022-12-18T00:15:34;100517.94;;;13.91;84.97
50430;BME280;36359;41.556;-8.418;2022-12-18T00:17:59;100523.00;;;13.70;85.99
50430;BME280;36359;41.556;-8.418;2022-12-18T00:20:25;100524.41;;;13.82;87.76
50430;BME280;36359;41.556;-8.418;2022-12-18T00:22:54;100531.31;;;14.11;91.84
50430;BME280;36359;41.556;-8.418;2022-12-18T00:25:20;100528.16;;;13.81;90.34
50430;BME280;36359;41.556;-8.418;2022-12-18T00:27:46;100543.09;;;13.26;85.90
50430;BME280;36359;41.556;-8.418;2022-12-18T00:30:13;100534.59;;;13.63;91.91
50430;BME280;36359;41.556;-8.418;2022-12-18T00:32:39;100535.16;;;13.41;88.92
50430;BME280;36359;41.556;-8.418;2022-12-18T00:35:06;100537.22;;;13.90;92.09
50430;BME280;36359;41.556;-8.418;2022-12-18T00:37:33;100530.63;;;13.58;88.50
50430;BME280;36359;41.556;-8.418;2022-12-18T00:39:59;100533.31;;;13.50;92.44
50430;BME280;36359;41.556;-8.418;2022-12-18T00:42:27;100540.91;;;13.30;88.84
50430;BME280;36359;41.556;-8.418;2022-12-18T00:45:11;100544.59;;;12.94;89.71
50430;BME280;36359;41.556;-8.418;2022-12-18T00:47:37;100540.78;;;12.87;90.91
50430;BME280;36359;41.556;-8.418;2022-12-18T00:50:03;100544.06;;;12.73;91.50
50430;BME280;36359;41.556;-8.418;2022-12-18T00:52:29;100538.50;;;12.75;91.87
50430;BME280;36359;41.556;-8.418;2022-12-18T00:54:55;100534.59;;;12.77;92.76
50430;BME280;36359;41.556;-8.418;2022-12-18T00:57:21;100529.47;;;12.74;93.42
50430;BME280;36359;41.556;-8.418;2022-12-18T00:59:46;100532.84;;;12.68;94.66
50430;BME280;36359;41.556;-8.418;2022-12-18T01:02:12;100527.53;;;12.66;93.74
50430;BME280;36359;41.556;-8.418;2022-12-18T01:04:38;100529.97;;;12.52;94.23
50430;BME280;36359;41.556;-8.418;2022-12-18T01:07:04;100531.00;;;12.50;94.71
50430;BME280;36359;41.556;-8.418;2022-12-18T01:09:29;100528.06;;;12.96;100.00
50430;BME280;36359;41.556;-8.418;2022-12-18T01:11:55;100532.69;;;12.95;95.63
50430;BME280;36359;41.556;-8.418;2022-12-18T01:14:21;100526.25;;;13.05;92.78
50430;BME280;36359;41.556;-8.418;2022-12-18T01:16:46;100532.34;;;13.25;95.56
50430;BME280;36359;41.556;-8.418;2022-12-18T01:19:12;100531.44;;;13.16;91.20
50430;BME280;36359;41.556;-8.418;2022-12-18T01:21:38;100527.88;;;12.89;91.57
50430;BME280;36359;41.556;-8.418;2022-12-18T01:24:04;100520.09;;;13.63;96.78
50430;BME280;36359;41.556;-8.418;2022-12-18T01:26:30;100512.19;;;13.44;90.57
50430;BME280;36359;41.556;-8.418;2022-12-18T01:28:56;100509.97;;;13.39;93.24
50430;BME280;36359;41.556;-8.418;2022-12-18T01:31:25;100505.09;;;13.67;91.80
50430;BME280;36359;41.556;-8.418;2022-12-18T01:33:52;100502.69;;;13.56;87.82
50430;BME280;36359;41.556;-8.418;2022-12-18T01:36:24;100498.31;;;13.71;91.27
50430;BME280;36359;41.556;-8.418;2022-12-18T01:38:51;100506.50;;;13.71;86.57
50430;BME280;36359;41.556;-8.418;2022-12-18T01:41:21;100511.47;;;13.84;90.22
50430;BME280;36359;41.556;-8.418;2022-12-18T01:46:19;100511.09;;;13.79;87.66
50430;BME280;36359;41.556;-8.418;2022-12-18T01:48:47;100508.25;;;13.97;95.66
50430;BME280;36359;41.556;-8.418;2022-12-18T01:51:14;100515.75;;;13.95;91.35
50430;BME280;36359;41.556;-8.418;2022-12-18T01:53:42;100520.50;;;13.84;86.13
50430;BME280;36359;41.556;-8.418;2022-12-18T01:56:12;100525.19;;;14.25;84.66
50430;BME280;36359;41.556;-8.418;2022-12-18T01:58:46;100518.38;;;14.37;89.46
50430;BME280;36359;41.556;-8.418;2022-12-18T02:01:14;100513.59;;;14.31;86.81
50430;BME280;36359;41.556;-8.418;2022-12-18T02:03:43;100520.59;;;14.34;91.52
50430;BME280;36359;41.556;-8.418;2022-12-18T02:06:25;100520.25;;;14.37;93.28
50430;BME280;36359;41.556;-8.418;2022-12-18T02:09:04;100524.69;;;14.21;87.71
50430;BME280;36359;41.556;-8.418;2022-12-18T02:14:26;100516.91;;;13.84;86.96
50430;BME280;36359;41.556;-8.418;2022-12-18T02:17:21;100514.41;;;14.23;90.68
50430;BME280;36359;41.556;-8.418;2022-12-18T02:27:56;100500.59;;;14.17;87.66
50430;BME280;36359;41.556;-8.418;2022-12-18T02:30:26;100503.50;;;13.99;90.68
50430;BME280;36359;41.556;-8.418;2022-12-18T02:32:53;100504.72;;;14.21;88.27
50430;BME280;36359;41.556;-8.418;2022-12-18T02:35:24;100511.03;;;14.21;89.87
50430;BME280;36359;41.556;-8.418;2022-12-18T02:37:55;100519.38;;;14.03;92.67
50430;BME280;36359;41.556;-8.418;2022-12-18T02:40:24;100524.16;;;14.34;94.35
50430;BME280;36359;41.556;-8.418;2022-12-18T02:42:51;100527.25;;;14.39;89.28
50430;BME280;36359;41.556;-8.418;2022-12-18T02:45:19;100518.72;;;14.42;94.14
50430;BME280;36359;41.556;-8.418;2022-12-18T02:47:48;100525.00;;;14.35;86.75
50430;BME280;36359;41.556;-8.418;2022-12-18T02:53:22;100550.03;;;14.05;89.95
50430;BME280;36359;41.556;-8.418;2022-12-18T03:07:08;100542.06;;;13.53;87.17
50430;BME280;36359;41.556;-8.418;2022-12-18T03:09:39;100535.19;;;13.92;89.03
50430;BME280;36359;41.556;-8.418;2022-12-18T03:12:28;100529.13;;;13.63;88.13
50430;BME280;36359;41.556;-8.418;2022-12-18T03:15:16;100533.63;;;13.38;86.36
50430;BME280;36359;41.556;-8.418;2022-12-18T03:17:59;100539.34;;;13.61;90.21
50430;BME280;36359;41.556;-8.418;2022-12-18T03:20:31;100537.06;;;13.49;88.08
50430;BME280;36359;41.556;-8.418;2022-12-18T03:23:21;100535.13;;;13.75;92.26
50430;BME280;36359;41.556;-8.418;2022-12-18T03:25:49;100542.72;;;14.06;97.04
50430;BME280;36359;41.556;-8.418;2022-12-18T03:28:20;100534.31;;;13.91;88.25
50430;BME280;36359;41.556;-8.418;2022-12-18T03:30:55;100532.75;;;13.72;87.83
50430;BME280;36359;41.556;-8.418;2022-12-18T03:33:30;100533.81;;;13.88;89.90
50430;BME280;36359;41.556;-8.418;2022-12-18T03:35:58;100535.38;;;14.15;93.19
50430;BME280;36359;41.556;-8.418;2022-12-18T03:38:24;100529.41;;;14.03;94.36
50430;BME280;36359;41.556;-8.418;2022-12-18T03:43:51;100533.78;;;13.71;87.90
50430;BME280;36359;41.556;-8.418;2022-12-18T03:46:49;100532.31;;;13.51;88.59
50430;BME280;36359;41.556;-8.418;2022-12-18T03:49:19;100541.53;;;13.58;88.16
50430;BME280;36359;41.556;-8.418;2022-12-18T03:51:52;100544.16;;;13.33;89.03
50430;BME280;36359;41.556;-8.418;2022-12-18T03:54:20;100532.19;;;13.26;87.56
50430;BME280;36359;41.556;-8.418;2022-12-18T03:57:07;100530.22;;;13.36;91.43
50430;BME280;36359;41.556;-8.418;2022-12-18T03:59:35;100526.66;;;13.44;93.31
50430;BME280;36359;41.556;-8.418;2022-12-18T04:02:04;100525.81;;;13.44;89.73
50430;BME280;36359;41.556;-8.418;2022-12-18T04:04:33;100522.84;;;13.29;87.61
50430;BME280;36359;41.556;-8.418;2022-12-18T04:07:03;100521.88;;;13.12;90.52
50430;BME280;36359;41.556;-8.418;2022-12-18T04:09:33;100524.00;;;13.26;92.09
50430;BME280;36359;41.556;-8.418;2022-12-18T04:12:00;100525.78;;;13.35;88.48
50430;BME280;36359;41.556;-8.418;2022-12-18T04:14:26;100530.53;;;13.33;93.31
50430;BME280;36359;41.556;-8.418;2022-12-18T04:16:54;100528.72;;;13.16;87.79
50430;BME280;36359;41.556;-8.418;2022-12-18T04:19:26;100522.31;;;13.25;92.16
50430;BME280;36359;41.556;-8.418;2022-12-18T04:21:52;100526.22;;;13.57;97.39
50430;BME280;36359;41.556;-8.418;2022-12-18T04:24:18;100521.19;;;13.44;91.38
50430;BME280;36359;41.556;-8.418;2022-12-18T04:26:53;100511.44;;;13.76;95.91
50430;BME280;36359;41.556;-8.418;2022-12-18T04:29:26;100516.31;;;13.56;86.48
50430;BME280;36359;41.556;-8.418;2022-12-18T04:31:51;100519.22;;;13.54;92.48
50430;BME280;36359;41.556;-8.418;2022-12-18T04:34:18;100509.34;;;13.53;92.34
50430;BME280;36359;41.556;-8.418;2022-12-18T04:36:49;100487.94;;;13.32;88.79
50430;BME280;36359;41.556;-8.418;2022-12-18T04:39:15;100496.66;;;13.44;87.85
50430;BME280;36359;41.556;-8.418;2022-12-18T04:41:49;100490.00;;;13.30;89.41
50430;BME280;36359;41.556;-8.418;2022-12-18T04:44:15;100507.13;;;13.23;90.68
50430;BME280;36359;41.556;-8.418;2022-12-18T04:46:40;100493.66;;;13.47;92.93
50430;BME280;36359;41.556;-8.418;2022-12-18T04:49:06;100501.00;;;13.63;95.75
50430;BME280;36359;41.556;-8.418;2022-12-18T04:51:32;100476.47;;;13.63;91.71
50430;BME280;36359;41.556;-8.418;2022-12-18T04:53:58;100492.19;;;13.77;91.41
50430;BME280;36359;41.556;-8.418;2022-12-18T04:56:23;100491.47;;;13.59;88.83
50430;BME280;36359;41.556;-8.418;2022-12-18T04:58:49;100478.47;;;13.45;87.40
50430;BME280;36359;41.556;-8.418;2022-12-18T05:01:17;100500.72;;;13.74;91.19
50430;BME280;36359;41.556;-8.418;2022-12-18T05:03:45;100488.06;;;13.57;86.88
50430;BME280;36359;41.556;-8.418;2022-12-18T05:06:11;100510.09;;;13.80;89.04
50430;BME280;36359;41.556;-8.418;2022-12-18T05:08:37;100511.69;;;14.07;91.50
50430;BME280;36359;41.556;-8.418;2022-12-18T05:11:05;100505.53;;;14.05;88.30
50430;BME280;36359;41.556;-8.418;2022-12-18T05:13:32;100506.19;;;13.91;92.93
50430;BME280;36359;41.556;-8.418;2022-12-18T05:15:58;100503.31;;;14.08;93.35
50430;BME280;36359;41.556;-8.418;2022-12-18T05:18:24;100505.22;;;14.16;86.96
50430;BME280;36359;41.556;-8.418;2022-12-18T05:20:51;100512.03;;;14.20;85.40
50430;BME280;36359;41.556;-8.418;2022-12-18T05:23:17;100509.31;;;14.12;88.16
50430;BME280;36359;41.556;-8.418;2022-12-18T05:25:52;100512.38;;;14.09;87.18
50430;BME280;36359;41.556;-8.418;2022-12-18T05:28:18;100499.59;;;14.18;88.44
50430;BME280;36359;41.556;-8.418;2022-12-18T05:30:51;100504.22;;;14.42;91.26
50430;BME280;36359;41.556;-8.418;2022-12-18T05:33:17;100506.91;;;14.50;93.16
50430;BME280;36359;41.556;-8.418;2022-12-18T05:35:43;100503.84;;;14.04;83.91
50430;BME280;36359;41.556;-8.418;2022-12-18T05:38:10;100495.50;;;14.30;89.04
50430;BME280;36359;41.556;-8.418;2022-12-18T05:40:36;100490.38;;;14.43;86.85
50430;BME280;36359;41.556;-8.418;2022-12-18T05:43:05;100498.41;;;14.45;84.90
50430;BME280;36359;41.556;-8.418;2022-12-18T05:45:30;100493.63;;;14.39;84.08
50430;BME280;36359;41.556;-8.418;2022-12-18T05:47:56;100498.75;;;14.42;85.14
50430;BME280;36359;41.556;-8.418;2022-12-18T05:50:22;100512.38;;;14.50;89.16
50430;BME280;36359;41.556;-8.418;2022-12-18T05:52:48;100507.66;;;14.68;85.81
50430;BME280;36359;41.556;-8.418;2022-12-18T05:55:14;100502.50;;;14.49;83.39
50430;BME280;36359;41.556;-8.418;2022-12-18T05:57:39;100495.72;;;14.53;86.65
50430;BME280;36359;41.556;-8.418;2022-12-18T06:00:05;100504.41;;;14.65;89.74
50430;BME280;36359;41.556;-8.418;2022-12-18T06:02:37;100506.63;;;14.77;89.68
50430;BME280;36359;41.556;-8.418;2022-12-18T06:05:03;100495.97;;;14.99;91.27
50430;BME280;36359;41.556;-8.418;2022-12-18T06:07:29;100508.28;;;15.03;87.40
50430;BME280;36359;41.556;-8.418;2022-12-18T06:09:55;100494.97;;;14.92;86.07
50430;BME280;36359;41.556;-8.418;2022-12-18T06:12:20;100507.94;;;14.90;85.43
50430;BME280;36359;41.556;-8.418;2022-12-18T06:14:46;100493.78;;;14.94;85.45
50430;BME280;36359;41.556;-8.418;2022-12-18T06:17:12;100501.69;;;14.65;80.94
50430;BME280;36359;41.556;-8.418;2022-12-18T06:19:37;100495.00;;;14.75;85.05
50430;BME280;36359;41.556;-8.418;2022-12-18T06:22:03;100497.72;;;14.84;84.20
50430;BME280;36359;41.556;-8.418;2022-12-18T06:24:29;100500.44;;;14.92;87.45
50430;BME280;36359;41.556;-8.418;2022-12-18T06:26:55;100499.03;;;15.04;89.42
50430;BME280;36359;41.556;-8.418;2022-12-18T06:29:21;100501.84;;;14.63;82.80
50430;BME280;36359;41.556;-8.418;2022-12-18T06:31:46;100501.19;;;14.53;81.09
50430;BME280;36359;41.556;-8.418;2022-12-18T06:34:12;100500.44;;;14.84;88.74
50430;BME280;36359;41.556;-8.418;2022-12-18T06:36:38;100509.34;;;14.69;82.15
50430;BME280;36359;41.556;-8.418;2022-12-18T06:39:03;100513.09;;;14.76;81.03
50430;BME280;36359;41.556;-8.418;2022-12-18T06:41:32;100513.91;;;15.02;85.31
50430;BME280;36359;41.556;-8.418;2022-12-18T06:43:58;100518.03;;;14.89;81.78
50430;BME280;36359;41.556;-8.418;2022-12-18T06:46:24;100521.94;;;15.03;87.80
50430;BME280;36359;41.556;-8.418;2022-12-18T06:48:50;100524.53;;;14.80;82.43
50430;BME280;36359;41.556;-8.418;2022-12-18T06:51:20;100526.72;;;14.93;86.66
50430;BME280;36359;41.556;-8.418;2022-12-18T06:53:46;100516.63;;;15.02;85.80
50430;BME280;36359;41.556;-8.418;2022-12-18T06:56:11;100532.09;;;15.34;91.05
50430;BME280;36359;41.556;-8.418;2022-12-18T06:58:38;100525.91;;;15.40;88.94
50430;BME280;36359;41.556;-8.418;2022-12-18T07:01:06;100533.53;;;15.13;84.79
50430;BME280;36359;41.556;-8.418;2022-12-18T07:03:32;100536.09;;;15.07;85.45
50430;BME280;36359;41.556;-8.418;2022-12-18T07:05:58;100536.94;;;15.24;89.13
50430;BME280;36359;41.556;-8.418;2022-12-18T07:08:24;100542.19;;;15.25;85.93
50430;BME280;36359;41.556;-8.418;2022-12-18T07:10:50;100547.16;;;15.30;87.49
50430;BME280;36359;41.556;-8.418;2022-12-18T07:13:16;100530.44;;;15.16;82.63
50430;BME280;36359;41.556;-8.418;2022-12-18T07:15:43;100534.34;;;15.22;84.70
50430;BME280;36359;41.556;-8.418;2022-12-18T07:18:09;100534.22;;;14.99;80.63
50430;BME280;36359;41.556;-8.418;2022-12-18T07:20:35;100542.56;;;15.06;86.73
50430;BME280;36359;41.556;-8.418;2022-12-18T07:23:04;100547.88;;;15.07;86.56
50430;BME280;36359;41.556;-8.418;2022-12-18T07:25:35;100550.41;;;15.17;88.25
50430;BME280;36359;41.556;-8.418;2022-12-18T07:28:01;100558.44;;;15.27;86.46
50430;BME280;36359;41.556;-8.418;2022-12-18T07:30:27;100557.22;;;15.29;83.14
50430;BME280;36359;41.556;-8.418;2022-12-18T07:32:52;100563.22;;;15.16;82.18
50430;BME280;36359;41.556;-8.418;2022-12-18T07:35:18;100565.59;;;15.28;84.87
50430;BME280;36359;41.556;-8.418;2022-12-18T07:37:44;100551.94;;;15.28;82.38
50430;BME280;36359;41.556;-8.418;2022-12-18T07:40:11;100558.09;;;15.30;85.09
50430;BME280;36359;41.556;-8.418;2022-12-18T07:42:37;100563.50;;;15.46;85.41
50430;BME280;36359;41.556;-8.418;2022-12-18T07:45:03;100561.78;;;15.53;87.91
50430;BME280;36359;41.556;-8.418;2022-12-18T07:47:35;100574.91;;;15.50;85.56
50430;BME280;36359;41.556;-8.418;2022-12-18T07:50:03;100583.94;;;15.58;86.53
50430;BME280;36359;41.556;-8.418;2022-12-18T07:52:29;100576.66;;;15.42;81.93
50430;BME280;36359;41.556;-8.418;2022-12-18T07:54:55;100576.81;;;15.49;84.24
50430;BME280;36359;41.556;-8.418;2022-12-18T07:57:21;100572.06;;;15.35;82.86
50430;BME280;36359;41.556;-8.418;2022-12-18T07:59:47;100580.22;;;15.51;82.72
50430;BME280;36359;41.556;-8.418;2022-12-18T08:02:12;100580.59;;;15.48;87.89
50430;BME280;36359;41.556;-8.418;2022-12-18T08:04:38;100586.06;;;15.48;83.47
50430;BME280;36359;41.556;-8.418;2022-12-18T08:07:04;100581.06;;;15.60;87.47
50430;BME280;36359;41.556;-8.418;2022-12-18T08:09:29;100585.22;;;15.48;82.84
50430;BME280;36359;41.556;-8.418;2022-12-18T08:11:55;100591.84;;;15.53;86.66
50430;BME280;36359;41.556;-8.418;2022-12-18T08:14:21;100578.88;;;15.47;82.71
50430;BME280;36359;41.556;-8.418;2022-12-18T08:16:46;100567.59;;;15.50;86.36
50430;BME280;36359;41.556;-8.418;2022-12-18T08:19:12;100584.66;;;15.52;85.54
50430;BME280;36359;41.556;-8.418;2022-12-18T08:21:38;100583.66;;;15.45;81.87
50430;BME280;36359;41.556;-8.418;2022-12-18T08:24:04;100586.06;;;15.40;82.03
50430;BME280;36359;41.556;-8.418;2022-12-18T08:26:30;100588.78;;;15.48;85.06
50430;BME280;36359;41.556;-8.418;2022-12-18T08:28:57;100594.25;;;15.48;85.03
50430;BME280;36359;41.556;-8.418;2022-12-18T08:31:24;100596.66;;;15.43;81.66
50430;BME280;36359;41.556;-8.418;2022-12-18T08:33:51;100600.44;;;15.42;86.00
50430;BME280;36359;41.556;-8.418;2022-12-18T08:36:17;100614.44;;;15.47;85.17
50430;BME280;36359;41.556;-8.418;2022-12-18T08:38:43;100606.91;;;15.41;84.69
50430;BME280;36359;41.556;-8.418;2022-12-18T08:41:11;100604.53;;;15.38;85.60
50430;BME280;36359;41.556;-8.418;2022-12-18T08:43:37;100610.13;;;15.53;84.91
50430;BME280;36359;41.556;-8.418;2022-12-18T08:46:35;100609.97;;;15.46;86.12
50430;BME280;36359;41.556;-8.418;2022-12-18T08:49:01;100617.19;;;15.39;85.33
50430;BME280;36359;41.556;-8.418;2022-12-18T08:51:26;100606.56;;;15.44;85.79
50430;BME280;36359;41.556;-8.418;2022-12-18T08:53:52;100606.97;;;15.25;83.10
50430;BME280;36359;41.556;-8.418;2022-12-18T08:56:18;100604.84;;;15.43;86.41
50430;BME280;36359;41.556;-8.418;2022-12-18T08:58:43;100599.19;;;15.53;87.34
50430;BME280;36359;41.556;-8.418;2022-12-18T09:01:11;100606.38;;;15.45;84.18
50430;BME280;36359;41.556;-8.418;2022-12-18T09:03:37;100610.31;;;15.51;83.34
50430;BME280;36359;41.556;-8.418;2022-12-18T09:06:03;100623.94;;;15.76;86.91
50430;BME280;36359;41.556;-8.418;2022-12-18T09:08:29;100634.72;;;15.69;84.18
50430;BME280;36359;41.556;-8.418;2022-12-18T09:10:55;100642.06;;;15.60;83.35
50430;BME280;36359;41.556;-8.418;2022-12-18T09:13:21;100653.00;;;15.60;83.40
50430;BME280;36359;41.556;-8.418;2022-12-18T09:15:49;100645.88;;;15.43;83.68
50430;BME280;36359;41.556;-8.418;2022-12-18T09:18:17;100628.41;;;15.52;84.24
50430;BME280;36359;41.556;-8.418;2022-12-18T09:20:43;100633.19;;;15.58;85.80
50430;BME280;36359;41.556;-8.418;2022-12-18T09:23:09;100629.44;;;15.51;82.73
50430;BME280;36359;41.556;-8.418;2022-12-18T09:25:36;100621.47;;;15.25;79.60
50430;BME280;36359;41.556;-8.418;2022-12-18T09:28:05;100616.50;;;15.29;85.25
50430;BME280;36359;41.556;-8.418;2022-12-18T09:30:31;100619.25;;;15.20;82.95
50430;BME280;36359;41.556;-8.418;2022-12-18T09:32:59;100612.56;;;15.39;84.98
50430;BME280;36359;41.556;-8.418;2022-12-18T09:35:25;100599.03;;;15.54;86.45
50430;BME280;36359;41.556;-8.418;2022-12-18T09:37:53;100600.56;;;15.49;83.12
50430;BME280;36359;41.556;-8.418;2022-12-18T09:40:23;100596.00;;;15.33;80.90
50430;BME280;36359;41.556;-8.418;2022-12-18T09:42:57;100604.72;;;15.36;82.30
50430;BME280;36359;41.556;-8.418;2022-12-18T09:45:23;100601.13;;;15.28;82.96
50430;BME280;36359;41.556;-8.418;2022-12-18T09:47:51;100612.22;;;15.42;85.56
50430;BME280;36359;41.556;-8.418;2022-12-18T09:50:23;100614.22;;;15.57;85.74
50430;BME280;36359;41.556;-8.418;2022-12-18T09:52:53;100617.13;;;15.55;80.89
50430;BME280;36359;41.556;-8.418;2022-12-18T09:55:25;100622.94;;;15.60;84.80
50430;BME280;36359;41.556;-8.418;2022-12-18T10:00:35;100627.91;;;15.49;81.54
50430;BME280;36359;41.556;-8.418;2022-12-18T10:03:12;100630.63;;;15.65;82.28
50430;BME280;36359;41.556;-8.418;2022-12-18T10:10:57;100634.53;;;15.79;84.63
50430;BME280;36359;41.556;-8.418;2022-12-18T10:13:42;100629.53;;;15.82;84.13
50430;BME280;36359;41.556;-8.418;2022-12-18T10:24:49;100622.59;;;15.72;82.96
50430;BME280;36359;41.556;-8.418;2022-12-18T10:27:16;100624.28;;;15.73;84.76
50430;BME280;36359;41.556;-8.418;2022-12-18T10:29:43;100633.53;;;15.72;81.25
50430;BME280;36359;41.556;-8.418;2022-12-18T10:32:23;100624.44;;;15.79;85.84
50430;BME280;36359;41.556;-8.418;2022-12-18T10:34:52;100630.41;;;15.83;82.00
50430;BME280;36359;41.556;-8.418;2022-12-18T10:37:20;100639.00;;;15.72;84.08
50430;BME280;36359;41.556;-8.418;2022-12-18T10:42:32;100641.72;;;15.80;83.20
50430;BME280;36359;41.556;-8.418;2022-12-18T10:45:14;100644.09;;;15.83;80.94
50430;BME280;36359;41.556;-8.418;2022-12-18T10:47:49;100646.47;;;15.86;85.45
50430;BME280;36359;41.556;-8.418;2022-12-18T10:52:58;100641.53;;;15.73;79.82
50430;BME280;36359;41.556;-8.418;2022-12-18T10:55:29;100642.38;;;15.82;84.49
50430;BME280;36359;41.556;-8.418;2022-12-18T10:58:32;100658.13;;;15.80;80.63
50430;BME280;36359;41.556;-8.418;2022-12-18T11:01:17;100652.44;;;15.89;85.66
50430;BME280;36359;41.556;-8.418;2022-12-18T11:06:22;100642.78;;;15.71;79.98
50430;BME280;36359;41.556;-8.418;2022-12-18T11:09:02;100646.84;;;15.83;83.64
50430;BME280;36359;41.556;-8.418;2022-12-18T11:11:29;100646.84;;;15.75;79.33
50430;BME280;36359;41.556;-8.418;2022-12-18T11:16:33;100640.19;;;15.77;83.47
50430;BME280;36359;41.556;-8.418;2022-12-18T11:21:47;100623.78;;;15.77;83.83
50430;BME280;36359;41.556;-8.418;2022-12-18T11:24:31;100619.97;;;15.86;82.71
50430;BME280;36359;41.556;-8.418;2022-12-18T11:27:03;100617.38;;;15.93;83.61
50430;BME280;36359;41.556;-8.418;2022-12-18T11:29:33;100612.38;;;15.97;82.18
50430;BME280;36359;41.556;-8.418;2022-12-18T11:32:24;100604.34;;;16.03;83.48
50430;BME280;36359;41.556;-8.418;2022-12-18T11:37:42;100599.06;;;15.94;81.23
50430;BME280;36359;41.556;-8.418;2022-12-18T11:40:16;100602.97;;;15.99;81.37
50430;BME280;36359;41.556;-8.418;2022-12-18T11:42:54;100596.03;;;15.88;78.82
50430;BME280;36359;41.556;-8.418;2022-12-18T11:45:46;100600.19;;;16.07;83.23
50430;BME280;36359;41.556;-8.418;2022-12-18T11:48:38;100583.72;;;16.16;83.26
50430;BME280;36359;41.556;-8.418;2022-12-18T11:51:14;100585.25;;;16.18;83.22
50430;BME280;36359;41.556;-8.418;2022-12-18T11:53:43;100583.94;;;16.06;81.26
50430;BME280;36359;41.556;-8.418;2022-12-18T11:56:39;100583.53;;;16.17;81.93
50430;BME280;36359;41.556;-8.418;2022-12-18T11:59:38;100596.66;;;16.30;80.80
50430;BME280;36359;41.556;-8.418;2022-12-18T12:02:42;100592.81;;;16.39;82.64
50430;BME280;36359;41.556;-8.418;2022-12-18T12:05:39;100598.09;;;16.41;82.75
50430;BME280;36359;41.556;-8.418;2022-12-18T12:16:29;100574.19;;;16.34;82.51
50430;BME280;36359;41.556;-8.418;2022-12-18T12:19:19;100571.28;;;16.36;81.06
50430;BME280;36359;41.556;-8.418;2022-12-18T12:27:18;100568.13;;;16.24;81.65
50430;BME280;36359;41.556;-8.418;2022-12-18T12:30:00;100562.81;;;16.23;81.63
50430;BME280;36359;41.556;-8.418;2022-12-18T12:35:42;100574.56;;;16.31;81.37
50430;BME280;36359;41.556;-8.418;2022-12-18T12:38:23;100561.06;;;16.30;82.10
50430;BME280;36359;41.556;-8.418;2022-12-18T12:41:00;100567.38;;;16.30;82.76
50430;BME280;36359;41.556;-8.418;2022-12-18T12:43:47;100560.34;;;16.36;82.67
50430;BME280;36359;41.556;-8.418;2022-12-18T12:46:17;100544.38;;;16.40;82.18
50430;BME280;36359;41.556;-8.418;2022-12-18T12:51:23;100537.69;;;16.42;80.41
50430;BME280;36359;41.556;-8.418;2022-12-18T12:53:50;100531.66;;;16.47;82.57
50430;BME280;36359;41.556;-8.418;2022-12-18T12:56:21;100539.22;;;16.45;80.68
50430;BME280;36359;41.556;-8.418;2022-12-18T12:58:59;100536.84;;;16.42;80.67
50430;BME280;36359;41.556;-8.418;2022-12-18T13:01:58;100538.66;;;16.49;80.52
50430;BME280;36359;41.556;-8.418;2022-12-18T13:07:12;100540.84;;;16.54;81.46
50430;BME280;36359;41.556;-8.418;2022-12-18T13:20:40;100533.84;;;16.51;82.36
50430;BME280;36359;41.556;-8.418;2022-12-18T13:23:39;100525.16;;;16.48;81.98
50430;BME280;36359;41.556;-8.418;2022-12-18T13:34:19;100527.16;;;16.54;80.48
50430;BME280;36359;41.556;-8.418;2022-12-18T13:36:45;100517.72;;;16.56;79.21
50430;BME280;36359;41.556;-8.418;2022-12-18T13:39:23;100515.06;;;16.48;80.50
50430;BME280;36359;41.556;-8.418;2022-12-18T13:41:52;100516.09;;;16.47;81.33
50430;BME280;36359;41.556;-8.418;2022-12-18T13:44:39;100513.16;;;16.49;81.75
50430;BME280;36359;41.556;-8.418;2022-12-18T13:47:32;100510.41;;;16.49;81.32
50430;BME280;36359;41.556;-8.418;2022-12-18T13:49:59;100509.09;;;16.45;78.59
50430;BME280;36359;41.556;-8.418;2022-12-18T13:52:28;100508.94;;;16.38;78.85
50430;BME280;36359;41.556;-8.418;2022-12-18T13:54:59;100506.16;;;16.46;81.33
50430;BME280;36359;41.556;-8.418;2022-12-18T13:57:29;100502.03;;;16.50;82.72
50430;BME280;36359;41.556;-8.418;2022-12-18T13:59:55;100496.34;;;16.52;81.22
50430;BME280;36359;41.556;-8.418;2022-12-18T14:02:24;100495.13;;;16.54;80.69
50430;BME280;36359;41.556;-8.418;2022-12-18T14:04:51;100492.03;;;16.57;81.12
50430;BME280;36359;41.556;-8.418;2022-12-18T14:07:28;100490.72;;;16.53;79.05
50430;BME280;36359;41.556;-8.418;2022-12-18T14:09:59;100469.03;;;16.44;82.79
50430;BME280;36359;41.556;-8.418;2022-12-18T14:12:38;100472.13;;;16.41;80.01
50430;BME280;36359;41.556;-8.418;2022-12-18T14:17:57;100493.44;;;16.53;80.93
50430;BME280;36359;41.556;-8.418;2022-12-18T14:26:49;100443.03;;;16.25;82.04
50430;BME280;36359;41.556;-8.418;2022-12-18T14:29:27;100484.00;;;16.56;82.32
50430;BME280;36359;41.556;-8.418;2022-12-18T14:34:53;100469.44;;;16.55;81.73
50430;BME280;36359;41.556;-8.418;2022-12-18T14:37:24;100465.84;;;16.55;81.71
50430;BME280;36359;41.556;-8.418;2022-12-18T14:39:57;100467.38;;;16.57;80.87
50430;BME280;36359;41.556;-8.418;2022-12-18T14:42:30;100468.41;;;16.56;82.52
50430;BME280;36359;41.556;-8.418;2022-12-18T14:48:00;100454.91;;;16.55;80.29
50430;BME280;36359;41.556;-8.418;2022-12-18T14:50:26;100453.50;;;16.59;80.67
50430;BME280;36359;41.556;-8.418;2022-12-18T14:52:52;100459.91;;;16.51;81.36
50430;BME280;36359;41.556;-8.418;2022-12-18T14:55:19;100456.03;;;16.61;81.58